Time;durP1;ratioP1;P1;durP2;ratioP2;P2;SDS_P1;SDS_P2;PMS_P1;PMS_P2;Temp;Humidity;BMP_temperature;BMP_pressure;BME280_temperature;BME280_humidity;BME280_pressure;Samples;Min_cycle;Max_cycle;Signal;HPM_P1;HPM_P2
2024/02/22 00:00:14;;;;;;;12.85;8.98;;;10.30;99.90;;;;;;20697423;28;20042;-39
2024/02/22 00:10:15;;;;;;;13.88;10.38;;;10.30;99.90;;;;;;20689778;28;20046;-39
2024/02/22 00:20:17;;;;;;;12.50;8.57;;;10.30;99.90;;;;;;20703966;28;20045;-39
2024/02/22 00:30:18;;;;;;;11.63;8.13;;;10.30;99.90;;;;;;20702435;28;20045;-39
2024/02/22 00:40:19;;;;;;;10.48;7.55;;;10.40;99.90;;;;;;20701845;28;20038;-39
2024/02/22 00:50:19;;;;;;;10.50;7.18;;;10.30;99.90;;;;;;20699342;28;20467;-39
2024/02/22 01:00:20;;;;;;;10.30;7.18;;;10.40;99.90;;;;;;20697495;28;20037;-39
2024/02/22 01:10:22;;;;;;;9.25;6.35;;;10.40;99.90;;;;;;20696082;28;20046;-40
2024/02/22 01:20:22;;;;;;;11.90;6.88;;;10.40;99.90;;;;;;20697164;28;20041;-40
2024/02/22 01:30:23;;;;;;;10.80;6.55;;;10.40;99.90;;;;;;20697173;28;20049;-40
2024/02/22 01:40:23;;;;;;;12.32;6.90;;;10.40;99.90;;;;;;20689591;28;20444;-40
2024/02/22 01:50:24;;;;;;;14.77;7.40;;;10.50;1.00;;;;;;20685522;28;20054;-40
2024/02/22 02:00:27;;;;;;;13.65;7.07;;;10.50;1.00;;;;;;20684707;28;20963;-40
2024/02/22 02:10:27;;;;;;;20.08;9.48;;;10.50;1.00;;;;;;20677230;28;20076;-40
2024/02/22 02:20:32;;;;;;;27.15;9.02;;;10.60;1.00;;;;;;20685436;28;22743;-39
2024/02/22 02:30:32;;;;;;;34.88;7.85;;;10.60;1.00;;;;;;20685396;28;20517;-39
2024/02/22 02:40:33;;;;;;;38.77;7.67;;;10.60;1.00;;;;;;20697580;28;20371;-39
2024/02/22 02:50:34;;;;;;;34.88;8.75;;;10.60;99.90;;;;;;20676683;28;20527;-39
2024/02/22 03:00:34;;;;;;;36.97;6.10;;;10.60;99.90;;;;;;20700923;28;20041;-39
2024/02/22 03:10:36;;;;;;;38.42;7.55;;;10.60;99.90;;;;;;20684615;28;20073;-39
2024/02/22 03:20:36;;;;;;;32.15;6.20;;;10.60;99.90;;;;;;20685860;28;20029;-39
2024/02/22 03:30:37;;;;;;;26.73;5.07;;;10.50;99.90;;;;;;20686188;28;20054;-39
2024/02/22 03:40:38;;;;;;;34.97;5.57;;;10.40;99.90;;;;;;20671098;28;20512;-39
2024/02/22 03:50:38;;;;;;;36.83;7.03;;;10.30;99.90;;;;;;20672034;28;20080;-39
2024/02/22 04:00:39;;;;;;;43.20;7.22;;;10.30;99.90;;;;;;20675654;28;20464;-39
2024/02/22 04:10:39;;;;;;;34.60;6.43;;;10.20;99.90;;;;;;20675061;28;20038;-39
2024/02/22 04:20:40;;;;;;;31.45;7.20;;;10.20;99.90;;;;;;20681657;28;20372;-39
2024/02/22 04:30:41;;;;;;;34.53;7.20;;;10.10;99.90;;;;;;20679506;28;20445;-39
2024/02/22 04:40:41;;;;;;;32.67;6.85;;;10.10;99.90;;;;;;20676086;28;20048;-39
2024/02/22 04:50:43;;;;;;;44.15;8.48;;;10.10;99.90;;;;;;20679322;28;20465;-39
2024/02/22 05:00:46;;;;;;;44.38;7.57;;;10.20;99.90;;;;;;20665554;28;20046;-39
2024/02/22 05:10:46;;;;;;;44.88;6.75;;;10.10;99.90;;;;;;20664605;28;20041;-39
2024/02/22 05:20:47;;;;;;;38.47;6.10;;;10.10;99.90;;;;;;20668240;28;20064;-39
2024/02/22 05:30:47;;;;;;;40.33;6.70;;;10.10;99.90;;;;;;20669535;28;20048;-39
2024/02/22 05:40:48;;;;;;;37.38;5.63;;;10.00;99.90;;;;;;20675729;28;20041;-38
2024/02/22 05:50:49;;;;;;;37.20;6.20;;;9.90;99.90;;;;;;20671564;28;20042;-39
2024/02/22 06:00:49;;;;;;;34.85;6.43;;;9.70;99.90;;;;;;20673646;28;20209;-39
2024/02/22 06:10:50;;;;;;;28.23;5.88;;;9.50;99.90;;;;;;20675959;28;20129;-39
2024/02/22 06:20:51;;;;;;;30.60;4.75;;;9.60;99.90;;;;;;20662390;28;20747;-39
2024/02/22 06:30:51;;;;;;;30.67;4.73;;;9.50;99.90;;;;;;20669609;28;20053;-39
2024/02/22 06:40:53;;;;;;;19.02;3.83;;;9.60;99.90;;;;;;20674303;28;20468;-39
2024/02/22 06:50:54;;;;;;;24.65;3.67;;;9.50;99.90;;;;;;20670404;28;20037;-39
2024/02/22 07:00:55;;;;;;;25.83;4.43;;;9.40;99.90;;;;;;20676395;28;20460;-38
2024/02/22 07:10:55;;;;;;;26.52;6.20;;;9.40;99.90;;;;;;20672817;28;20041;-39
2024/02/22 07:21:00;;;;;;;20.63;6.53;;;9.40;99.90;;;;;;20687749;28;20048;-39
2024/02/22 07:31:00;;;;;;;31.55;7.60;;;9.70;99.90;;;;;;20691569;28;20049;-38
2024/02/22 07:41:05;;;;;;;30.83;7.10;;;9.70;99.90;;;;;;20691269;28;20038;-39
2024/02/22 07:51:09;;;;;;;26.42;7.82;;;9.70;99.90;;;;;;20687095;28;20283;-39
2024/02/22 08:01:10;;;;;;;28.77;6.85;;;9.70;99.90;;;;;;20687751;28;20413;-38
2024/02/22 08:11:12;;;;;;;26.67;8.57;;;9.80;99.90;;;;;;20683721;28;20537;-39
2024/02/22 08:21:12;;;;;;;29.88;10.98;;;9.80;99.90;;;;;;20695237;28;20092;-38
2024/02/22 08:31:13;;;;;;;32.50;12.65;;;9.90;99.90;;;;;;20679531;28;20042;-39
2024/02/22 08:41:14;;;;;;;24.70;10.25;;;9.90;99.90;;;;;;20677495;28;20046;-39
2024/02/22 08:51:14;;;;;;;22.77;10.80;;;10.00;99.90;;;;;;20675548;28;20034;-39
2024/02/22 09:01:15;;;;;;;22.73;10.07;;;10.10;99.90;;;;;;20676945;28;20045;-39
2024/02/22 09:11:15;;;;;;;15.23;8.38;;;10.00;99.90;;;;;;20677134;28;21191;-39
2024/02/22 09:21:16;;;;;;;12.60;7.05;;;10.20;99.90;;;;;;20674975;28;20038;-39
2024/02/22 09:31:17;;;;;;;11.73;6.05;;;10.50;99.90;;;;;;20677441;28;20037;-38
2024/02/22 09:41:19;;;;;;;10.73;5.70;;;10.70;99.90;;;;;;20682408;28;20116;-39
2024/02/22 09:51:21;;;;;;;9.20;5.85;;;10.90;99.90;;;;;;20691541;28;20488;-38
2024/02/22 10:01:22;;;;;;;7.85;4.85;;;11.40;99.90;;;;;;20695502;28;20038;-39
2024/02/22 10:11:24;;;;;;;7.43;4.25;;;11.70;99.10;;;;;;20698370;28;20046;-39
2024/02/22 10:21:27;;;;;;;7.80;5.10;;;11.40;97.90;;;;;;20701744;28;20034;-38
2024/02/22 10:31:28;;;;;;;7.88;5.15;;;11.40;94.90;;;;;;20700368;28;20049;-39
2024/02/22 10:41:29;;;;;;;8.25;4.95;;;11.30;94.10;;;;;;20699576;28;20049;-39
2024/02/22 10:51:30;;;;;;;6.43;4.03;;;11.40;96.90;;;;;;20702444;28;20038;-39
2024/02/22 11:01:33;;;;;;;5.18;3.63;;;11.50;98.70;;;;;;20718068;28;20040;-38
2024/02/22 11:11:42;;;;;;;5.28;3.75;;;11.50;99.20;;;;;;20714379;28;20042;-38
2024/02/22 11:21:43;;;;;;;6.70;4.05;;;11.40;99.90;;;;;;20712630;28;20038;-39
2024/02/22 11:31:44;;;;;;;7.18;4.43;;;11.50;99.90;;;;;;20713979;28;20038;-39
2024/02/22 11:41:51;;;;;;;6.45;4.95;;;11.50;99.90;;;;;;20711652;28;20410;-39
2024/02/22 11:51:53;;;;;;;9.17;5.90;;;11.70;99.90;;;;;;20711055;28;20050;-39
2024/02/22 12:01:54;;;;;;;8.05;6.82;;;11.70;99.90;;;;;;20696443;28;20034;-38
2024/02/22 12:11:55;;;;;;;10.98;7.95;;;11.70;99.90;;;;;;20711419;28;20062;-38
2024/02/22 12:22:00;;;;;;;9.77;6.95;;;11.70;99.90;;;;;;20709534;28;20141;-38
2024/02/22 12:32:06;;;;;;;9.52;6.25;;;11.80;99.90;;;;;;20708625;28;20053;-39
2024/02/22 12:42:07;;;;;;;6.68;5.45;;;11.90;99.90;;;;;;20707132;28;20518;-38
2024/02/22 12:52:08;;;;;;;7.20;5.55;;;11.90;99.90;;;;;;20707074;28;20046;-38
2024/02/22 13:02:09;;;;;;;5.88;4.63;;;12.00;99.90;;;;;;20706632;28;20046;-38
2024/02/22 13:12:10;;;;;;;5.55;4.57;;;12.10;99.90;;;;;;20707014;28;20053;-38
2024/02/22 13:22:11;;;;;;;6.13;4.22;;;12.10;99.90;;;;;;20701241;28;20068;-38
2024/02/22 13:32:11;;;;;;;5.88;4.20;;;12.20;99.90;;;;;;20705262;28;20117;-39
2024/02/22 13:42:15;;;;;;;5.78;4.20;;;12.30;99.90;;;;;;20703359;28;20041;-38
2024/02/22 13:52:15;;;;;;;5.53;4.28;;;12.40;99.90;;;;;;20700375;28;20050;-38
2024/02/22 14:02:16;;;;;;;4.82;4.28;;;12.50;99.90;;;;;;20694403;28;20041;-38
2024/02/22 14:12:17;;;;;;;4.83;3.87;;;12.60;99.90;;;;;;20694078;28;20140;-38
2024/02/22 14:22:17;;;;;;;4.30;3.53;;;12.50;99.90;;;;;;20686723;28;20041;-38
2024/02/22 14:32:18;;;;;;;4.38;3.67;;;12.60;99.90;;;;;;20702068;28;20120;-39
2024/02/22 14:42:19;;;;;;;4.40;3.45;;;12.60;99.90;;;;;;20704494;28;20120;-39
2024/02/22 14:52:21;;;;;;;3.78;3.17;;;12.60;99.90;;;;;;20705506;28;20140;-38
2024/02/22 15:02:21;;;;;;;3.47;2.72;;;12.60;99.90;;;;;;20709700;28;20073;-39
2024/02/22 15:12:23;;;;;;;3.80;2.08;;;12.60;99.90;;;;;;20713553;28;20037;-39
2024/02/22 15:22:25;;;;;;;4.28;2.20;;;12.60;99.90;;;;;;20711590;28;20033;-38
2024/02/22 15:32:25;;;;;;;2.50;1.63;;;12.70;99.90;;;;;;20715611;28;20108;-39
2024/02/22 15:42:26;;;;;;;2.33;1.40;;;12.70;99.90;;;;;;20710938;28;20077;-38
2024/02/22 15:52:27;;;;;;;1.67;1.20;;;12.70;99.90;;;;;;20712024;28;20072;-39
2024/02/22 16:02:27;;;;;;;2.72;1.30;;;12.70;99.90;;;;;;20694744;28;20111;-39
2024/02/22 16:12:28;;;;;;;1.50;0.80;;;12.80;99.90;;;;;;20709551;28;20473;-39
2024/02/22 16:22:29;;;;;;;1.20;0.80;;;12.80;99.90;;;;;;20709465;28;20571;-39
2024/02/22 16:32:30;;;;;;;1.20;0.73;;;12.90;99.90;;;;;;20710518;28;20057;-40
2024/02/22 16:42:35;;;;;;;1.73;0.80;;;12.90;99.90;;;;;;20699072;28;20436;-39
2024/02/22 16:52:35;;;;;;;0.82;0.38;;;12.90;99.90;;;;;;20698691;28;20048;-39
2024/02/22 17:02:36;;;;;;;1.13;0.45;;;13.10;99.90;;;;;;20699257;28;20038;-40
2024/02/22 17:12:36;;;;;;;1.47;0.40;;;13.10;72.10;;;;;;20700927;28;20068;-39
2024/02/22 17:22:37;;;;;;;1.42;0.40;;;13.20;37.20;;;;;;20704810;28;20034;-39
2024/02/22 17:32:37;;;;;;;2.00;0.20;;;13.20;12.90;;;;;;20700787;28;20500;-39
2024/02/22 17:42:38;;;;;;;0.93;0.32;;;12.80;15.20;;;;;;20691278;28;20046;-39
2024/02/22 17:52:39;;;;;;;0.50;0.20;;;11.70;19.90;;;;;;20642416;28;20054;-39
2024/02/22 18:02:40;;;;;;;6.05;0.93;;;11.10;30.00;;;;;;20674453;28;20352;-39
2024/02/22 18:12:40;;;;;;;7.28;0.65;;;10.70;33.30;;;;;;20687977;28;20301;-39
2024/02/22 18:22:41;;;;;;;5.23;0.60;;;10.60;40.10;;;;;;20684161;28;20038;-39
2024/02/22 18:32:41;;;;;;;3.27;0.47;;;10.50;35.60;;;;;;20665462;28;20460;-39
2024/02/22 18:42:43;;;;;;;4.03;0.57;;;10.60;27.20;;;;;;20686036;28;21005;-39
2024/02/22 18:52:45;;;;;;;3.30;0.60;;;10.60;24.80;;;;;;20680386;28;20456;-40
2024/02/22 19:02:45;;;;;;;7.40;0.80;;;10.50;60.90;;;;;;20692922;28;20700;-39
2024/02/22 19:12:46;;;;;;;5.57;1.20;;;10.00;95.00;;;;;;20700313;28;20048;-40
2024/02/22 19:22:47;;;;;;;3.63;0.90;;;9.80;75.50;;;;;;20712547;28;20858;-40
2024/02/22 19:32:47;;;;;;;6.20;0.80;;;9.80;72.60;;;;;;20713176;28;20048;-39
2024/02/22 19:42:48;;;;;;;3.92;0.77;;;9.40;31.90;;;;;;20639199;28;20046;-40
2024/02/22 19:52:48;;;;;;;6.83;0.93;;;9.10;29.90;;;;;;20624494;28;20047;-39
2024/02/22 20:02:51;;;;;;;6.15;0.57;;;8.80;32.10;;;;;;20627329;28;20038;-40
2024/02/22 20:12:52;;;;;;;4.70;0.68;;;8.10;58.40;;;;;;20630006;28;20046;-40
2024/02/22 20:22:52;;;;;;;3.78;0.50;;;7.70;84.10;;;;;;20625244;28;20042;-40
2024/02/22 20:32:53;;;;;;;5.20;0.57;;;7.50;80.00;;;;;;20623432;28;20054;-39
2024/02/22 20:42:56;;;;;;;5.55;0.57;;;7.30;84.50;;;;;;20697398;28;20042;-40
2024/02/22 20:52:57;;;;;;;3.08;0.60;;;7.20;48.30;;;;;;20698405;28;20141;-39
2024/02/22 21:02:59;;;;;;;5.40;0.93;;;7.20;53.80;;;;;;20696902;28;20037;-40
2024/02/22 21:13:01;;;;;;;6.25;1.27;;;7.10;63.30;;;;;;20696345;28;20085;-43
2024/02/22 21:23:03;;;;;;;5.45;0.57;;;6.90;55.90;;;;;;20698284;28;20521;-39
2024/02/22 21:33:04;;;;;;;4.20;0.50;;;6.70;76.70;;;;;;20697160;28;20786;-39
2024/02/22 21:43:04;;;;;;;3.97;0.90;;;6.60;93.30;;;;;;20700690;28;20464;-40
2024/02/22 21:53:07;;;;;;;7.22;0.40;;;6.50;91.20;;;;;;20692685;28;20053;-40
2024/02/22 22:03:07;;;;;;;4.03;0.50;;;6.40;99.20;;;;;;20696136;28;20045;-41
2024/02/22 22:13:08;;;;;;;5.93;0.57;;;6.30;99.10;;;;;;20697765;28;20045;-40
2024/02/22 22:23:09;;;;;;;6.93;0.85;;;6.20;94.50;;;;;;20703826;28;20401;-40
2024/02/22 22:33:11;;;;;;;6.88;0.93;;;6.00;93.10;;;;;;20701694;28;20060;-40
2024/02/22 22:43:12;;;;;;;1.77;0.20;;;5.90;91.50;;;;;;20698597;28;20060;-40
2024/02/22 22:53:12;;;;;;;2.15;0.50;;;5.60;98.80;;;;;;20707048;28;20050;-40
2024/02/22 23:03:14;;;;;;;2.38;0.57;;;5.30;99.90;;;;;;20700683;28;20046;-39
2024/02/22 23:13:14;;;;;;;4.43;0.73;;;5.00;99.90;;;;;;20702238;28;20038;-39
2024/02/22 23:23:15;;;;;;;6.75;1.30;;;4.90;99.90;;;;;;20694057;28;20037;-39
2024/02/22 23:33:16;;;;;;;7.47;1.15;;;5.20;99.90;;;;;;20698147;28;20042;-39
2024/02/22 23:43:16;;;;;;;8.98;1.38;;;5.40;99.90;;;;;;20702257;28;20034;-40
2024/02/22 23:53:17;;;;;;;11.95;2.17;;;5.50;99.90;;;;;;20704330;28;20046;-39
